Time;durP1;ratioP1;P1;durP2;ratioP2;P2;SDS_P1;SDS_P2;PMS_P1;PMS_P2;Temp;Humidity;BMP_temperature;BMP_pressure;BME280_temperature;BME280_humidity;BME280_pressure;Samples;Min_cycle;Max_cycle;Signal;HPM_P1;HPM_P2
2023/01/10 00:01:28;;;;;;;4.80;2.90;;;9.10;99.90;;;;;;4971528;28;20413;-54
2023/01/10 00:03:55;;;;;;;5.93;3.27;;;9.50;99.90;;;;;;4971102;28;20437;-53
2023/01/10 00:06:23;;;;;;;4.90;2.90;;;8.60;99.90;;;;;;4971109;28;20922;-53
2023/01/10 00:08:49;;;;;;;3.57;2.40;;;9.20;99.90;;;;;;4970313;28;20463;-53
2023/01/10 00:14:00;;;;;;;5.27;4.07;;;9.10;99.90;;;;;;4970904;28;20431;-52
2023/01/10 00:16:27;;;;;;;4.60;3.27;;;8.40;99.90;;;;;;4970807;28;20435;-53
2023/01/10 00:18:53;;;;;;;3.40;3.10;;;9.20;99.90;;;;;;4969919;28;20827;-53
2023/01/10 00:21:20;;;;;;;4.60;3.60;;;9.10;99.90;;;;;;4970738;28;20436;-53
2023/01/10 00:23:48;;;;;;;5.83;3.77;;;9.50;99.90;;;;;;4970836;28;20829;-53
2023/01/10 00:26:15;;;;;;;4.37;3.27;;;9.00;99.90;;;;;;4970574;28;20440;-54
2023/01/10 00:28:42;;;;;;;6.37;4.50;;;9.30;99.90;;;;;;4969988;28;20805;-53
2023/01/10 00:31:10;;;;;;;4.40;3.57;;;8.70;99.90;;;;;;4970591;28;20409;-54
2023/01/10 00:33:37;;;;;;;4.73;3.63;;;9.20;99.90;;;;;;4970601;28;20425;-54
2023/01/10 00:36:06;;;;;;;4.80;3.27;;;9.10;99.90;;;;;;4970762;28;20426;-53
2023/01/10 00:38:35;;;;;;;4.23;3.50;;;8.90;99.90;;;;;;4969885;28;20417;-53
2023/01/10 00:43:55;;;;;;;4.53;3.80;;;8.90;99.90;;;;;;4971029;28;20413;-53
2023/01/10 00:43:57;;;;;;;4.10;3.03;;;9.10;99.90;;;;;;4970525;28;20514;-53
2023/01/10 00:46:23;;;;;;;4.97;3.90;;;9.20;99.90;;;;;;4970520;28;20457;-53
2023/01/10 00:48:50;;;;;;;6.20;3.63;;;9.20;99.90;;;;;;4969918;28;20432;-53
2023/01/10 00:51:16;;;;;;;5.50;3.90;;;9.00;99.90;;;;;;4970446;28;20434;-54
2023/01/10 00:53:43;;;;;;;6.73;3.77;;;8.60;99.90;;;;;;4970414;28;20438;-54
2023/01/10 00:56:11;;;;;;;7.47;3.67;;;9.10;99.90;;;;;;4970201;28;20778;-52
2023/01/10 00:58:37;;;;;;;10.03;4.10;;;9.10;99.90;;;;;;4969065;28;20417;-53
2023/01/10 01:01:04;;;;;;;7.10;3.80;;;9.00;99.90;;;;;;4968187;28;20898;-53
2023/01/10 01:03:31;;;;;;;4.30;3.57;;;9.30;99.90;;;;;;4970052;28;20442;-52
2023/01/10 01:05:57;;;;;;;4.13;3.70;;;9.10;99.90;;;;;;4969880;28;20434;-53
2023/01/10 01:08:24;;;;;;;5.27;4.20;;;9.30;99.90;;;;;;4969620;28;20413;-53
2023/01/10 01:10:50;;;;;;;4.83;3.50;;;9.00;99.90;;;;;;4969764;28;20421;-53
2023/01/10 01:13:21;;;;;;;4.63;4.00;;;9.00;99.90;;;;;;4970034;28;20438;-53
2023/01/10 01:15:48;;;;;;;6.63;4.10;;;8.90;99.90;;;;;;4970063;28;20405;-53
2023/01/10 01:18:17;;;;;;;5.00;4.23;;;8.90;99.90;;;;;;4968683;28;20463;-53
2023/01/10 01:20:45;;;;;;;7.13;4.50;;;8.80;99.90;;;;;;4969085;28;20800;-53
2023/01/10 01:23:11;;;;;;;4.50;3.90;;;8.70;99.90;;;;;;4969719;28;20993;-53
2023/01/10 01:25:39;;;;;;;5.33;4.03;;;8.70;99.90;;;;;;4969604;28;20450;-52
2023/01/10 01:28:05;;;;;;;7.27;4.03;;;8.90;99.90;;;;;;4968470;28;20959;-53
2023/01/10 01:30:33;;;;;;;5.03;3.40;;;8.90;99.90;;;;;;4968875;28;20425;-53
2023/01/10 01:33:00;;;;;;;5.67;3.27;;;8.90;99.90;;;;;;4969825;28;20522;-53
2023/01/10 01:35:26;;;;;;;5.20;3.50;;;8.80;99.90;;;;;;4969608;28;20438;-53
2023/01/10 01:37:53;;;;;;;5.00;4.37;;;9.00;99.90;;;;;;4969696;28;20934;-53
2023/01/10 01:40:21;;;;;;;6.43;4.10;;;8.70;99.90;;;;;;4968704;28;20479;-53
2023/01/10 01:42:48;;;;;;;4.47;3.77;;;8.60;99.90;;;;;;4969501;28;20419;-53
2023/01/10 01:45:36;;;;;;;6.90;4.33;;;8.90;99.90;;;;;;4969794;28;20431;-53
2023/01/10 01:48:12;;;;;;;7.30;4.10;;;8.80;99.90;;;;;;4969615;28;20441;-53
2023/01/10 01:50:43;;;;;;;5.03;4.00;;;8.50;99.90;;;;;;4968696;28;21001;-53
2023/01/10 01:53:14;;;;;;;7.90;3.93;;;8.60;99.90;;;;;;4969417;28;20412;-53
2023/01/10 01:55:43;;;;;;;5.50;4.27;;;8.30;99.90;;;;;;4969387;28;20444;-53
2023/01/10 01:58:14;;;;;;;5.17;4.53;;;8.50;99.90;;;;;;4969418;28;20413;-53
2023/01/10 02:00:42;;;;;;;4.43;3.73;;;8.20;99.90;;;;;;4968099;28;20486;-53
2023/01/10 02:03:10;;;;;;;5.37;3.90;;;8.60;99.90;;;;;;4969092;28;20918;-51
2023/01/10 02:05:40;;;;;;;4.43;3.50;;;7.90;99.90;;;;;;4969325;28;20442;-52
2023/01/10 02:08:07;;;;;;;5.80;4.20;;;8.60;99.90;;;;;;4969417;28;20409;-52
2023/01/10 02:10:40;;;;;;;5.33;4.30;;;8.40;99.90;;;;;;4968559;28;20454;-52
2023/01/10 02:13:09;;;;;;;5.50;4.30;;;8.40;99.90;;;;;;4972877;28;20409;-53
2023/01/10 02:15:35;;;;;;;7.07;4.70;;;8.50;99.90;;;;;;4972526;28;20446;-53
2023/01/10 02:18:04;;;;;;;6.40;3.67;;;8.40;99.90;;;;;;4972457;28;20893;-53
2023/01/10 02:20:39;;;;;;;7.40;4.17;;;8.30;99.90;;;;;;4971832;28;20482;-53
2023/01/10 02:23:26;;;;;;;9.80;5.17;;;8.30;99.90;;;;;;4972318;28;20408;-53
2023/01/10 02:26:45;;;;;;;7.93;4.80;;;8.20;99.90;;;;;;4972462;28;20409;-53
2023/01/10 02:29:46;;;;;;;8.20;5.10;;;8.30;99.90;;;;;;4995625;28;20480;-53
2023/01/10 02:32:22;;;;;;;9.70;4.80;;;8.30;99.90;;;;;;4972391;28;20410;-53
2023/01/10 02:35:00;;;;;;;7.60;5.70;;;8.30;99.90;;;;;;4972267;28;20413;-53
2023/01/10 02:37:41;;;;;;;8.53;5.60;;;8.10;99.90;;;;;;4972277;28;20899;-53
2023/01/10 02:40:18;;;;;;;7.30;5.00;;;8.20;99.90;;;;;;4971308;28;20471;-53
2023/01/10 02:42:51;;;;;;;7.37;5.20;;;8.00;99.90;;;;;;4972095;28;20429;-53
2023/01/10 02:45:23;;;;;;;10.50;6.80;;;7.90;99.90;;;;;;4972035;28;20413;-53
2023/01/10 02:47:51;;;;;;;7.43;5.90;;;8.10;99.90;;;;;;4972138;28;20440;-54
2023/01/10 02:50:41;;;;;;;9.03;5.37;;;8.00;99.90;;;;;;4971078;28;20452;-52
2023/01/10 02:53:14;;;;;;;6.23;4.90;;;8.20;99.90;;;;;;4971945;28;20778;-53
2023/01/10 02:55:57;;;;;;;7.20;4.17;;;8.20;99.90;;;;;;4972308;28;20766;-52
2023/01/10 02:58:39;;;;;;;5.90;3.90;;;8.20;99.90;;;;;;4971409;28;20508;-53
2023/01/10 03:01:10;;;;;;;7.07;3.90;;;8.20;99.90;;;;;;4971948;28;20467;-54
2023/01/10 03:03:46;;;;;;;11.33;4.17;;;8.20;99.90;;;;;;4971886;28;20441;-54
2023/01/10 03:06:23;;;;;;;6.60;4.87;;;7.60;99.90;;;;;;4971864;28;20416;-54
2023/01/10 03:08:56;;;;;;;5.90;4.10;;;7.70;99.90;;;;;;4971025;28;20536;-53
2023/01/10 03:11:39;;;;;;;7.00;4.03;;;8.20;99.90;;;;;;4972120;28;20434;-53
2023/01/10 03:14:11;;;;;;;7.07;4.00;;;8.50;99.90;;;;;;4972021;28;20466;-53
2023/01/10 03:16:40;;;;;;;8.03;4.93;;;8.00;99.90;;;;;;4971764;28;20447;-53
2023/01/10 03:19:12;;;;;;;8.97;4.60;;;8.10;99.90;;;;;;4971598;28;20460;-53
2023/01/10 03:21:40;;;;;;;6.90;4.00;;;8.40;99.90;;;;;;4971705;28;20404;-52
2023/01/10 03:24:12;;;;;;;10.13;4.73;;;8.30;99.90;;;;;;4969411;28;20420;-53
2023/01/10 03:26:47;;;;;;;8.27;4.87;;;8.20;99.90;;;;;;4971936;28;20481;-53
2023/01/10 03:29:16;;;;;;;10.23;4.87;;;8.20;99.90;;;;;;4970925;28;20438;-53
2023/01/10 03:31:48;;;;;;;8.50;5.20;;;7.80;99.90;;;;;;4971665;28;20404;-55
2023/01/10 03:34:16;;;;;;;9.73;4.83;;;8.50;99.90;;;;;;4972227;28;20507;-54
2023/01/10 03:36:50;;;;;;;9.70;4.43;;;8.20;99.90;;;;;;4971643;28;20416;-54
2023/01/10 03:39:22;;;;;;;7.97;5.03;;;8.80;99.90;;;;;;4970572;28;20456;-54
2023/01/10 03:41:56;;;;;;;8.13;5.63;;;8.30;99.90;;;;;;4971319;28;20940;-54
2023/01/10 03:44:43;;;;;;;5.90;4.90;;;8.40;99.90;;;;;;4971399;28;20500;-54
2023/01/10 03:47:15;;;;;;;5.93;4.37;;;8.40;99.90;;;;;;4971155;28;20422;-54
2023/01/10 03:49:46;;;;;;;10.43;4.30;;;8.60;99.90;;;;;;4970499;28;20451;-54
2023/01/10 03:52:15;;;;;;;5.83;4.43;;;8.50;99.90;;;;;;4971280;28;20446;-53
2023/01/10 03:54:43;;;;;;;9.97;5.20;;;8.40;99.90;;;;;;4971138;28;20420;-54
2023/01/10 03:57:16;;;;;;;11.23;5.20;;;8.20;99.90;;;;;;4971176;28;20441;-54
2023/01/10 03:59:43;;;;;;;12.53;6.77;;;8.40;99.90;;;;;;4970072;28;20452;-54
2023/01/10 04:02:09;;;;;;;10.93;5.30;;;8.30;99.90;;;;;;4970982;28;20420;-54
2023/01/10 04:04:36;;;;;;;9.87;5.00;;;8.50;99.90;;;;;;4970946;28;20858;-53
2023/01/10 04:07:04;;;;;;;10.80;6.37;;;8.60;99.90;;;;;;4970839;28;20431;-53
2023/01/10 04:09:30;;;;;;;10.80;5.57;;;8.60;99.90;;;;;;4969971;28;20436;-53
2023/01/10 04:11:57;;;;;;;10.77;5.83;;;8.60;99.90;;;;;;4970723;28;20449;-54
2023/01/10 04:14:24;;;;;;;9.27;6.80;;;8.20;99.90;;;;;;4970707;28;20458;-53
2023/01/10 04:16:50;;;;;;;12.60;6.20;;;8.40;99.90;;;;;;4970809;28;20460;-53
2023/01/10 04:19:17;;;;;;;8.80;5.93;;;7.90;99.90;;;;;;4970118;28;20433;-53
2023/01/10 04:21:43;;;;;;;8.63;6.30;;;8.60;99.90;;;;;;4970649;28;20460;-52
2023/01/10 04:24:11;;;;;;;11.40;7.00;;;8.50;99.90;;;;;;4971151;28;20933;-53
2023/01/10 04:26:38;;;;;;;14.30;7.30;;;8.70;99.90;;;;;;4970654;28;20413;-53
2023/01/10 04:29:05;;;;;;;9.10;6.33;;;8.70;99.90;;;;;;4969929;28;20428;-53
2023/01/10 04:31:31;;;;;;;12.27;7.13;;;8.70;99.90;;;;;;4970462;28;20441;-53
2023/01/10 04:33:58;;;;;;;10.80;5.90;;;8.40;99.90;;;;;;4970067;28;20451;-53
2023/01/10 04:36:26;;;;;;;10.37;7.43;;;7.90;99.90;;;;;;4970234;28;20509;-53
2023/01/10 04:38:53;;;;;;;10.30;5.70;;;8.50;99.90;;;;;;4969640;28;20463;-53
2023/01/10 04:41:21;;;;;;;14.80;7.27;;;8.70;99.90;;;;;;4971155;28;20462;-52
2023/01/10 04:43:48;;;;;;;13.00;7.07;;;8.40;99.90;;;;;;4970448;28;20409;-53
2023/01/10 04:46:15;;;;;;;14.30;7.07;;;8.40;99.90;;;;;;4970695;28;20832;-53
2023/01/10 04:48:41;;;;;;;12.53;7.20;;;8.90;99.90;;;;;;4969490;28;20541;-53
2023/01/10 04:51:08;;;;;;;10.73;7.43;;;8.30;99.90;;;;;;4970201;28;20409;-54
2023/01/10 04:53:35;;;;;;;12.83;6.87;;;8.60;99.90;;;;;;4970300;28;20963;-53
2023/01/10 04:56:05;;;;;;;18.97;9.57;;;8.30;99.90;;;;;;4970265;28;20536;-54
2023/01/10 04:58:34;;;;;;;12.40;6.83;;;8.50;99.90;;;;;;4968108;28;20429;-52
2023/01/10 05:01:07;;;;;;;13.30;7.10;;;7.80;99.90;;;;;;4969992;28;20464;-53
2023/01/10 05:03:34;;;;;;;14.80;6.93;;;8.20;99.90;;;;;;4970280;28;20440;-53
2023/01/10 05:06:01;;;;;;;15.20;7.40;;;8.50;99.90;;;;;;4970055;28;20443;-53
2023/01/10 05:08:27;;;;;;;15.00;7.40;;;7.80;99.90;;;;;;4969480;28;20413;-53
2023/01/10 05:10:54;;;;;;;12.07;7.70;;;8.40;99.90;;;;;;4970266;28;20956;-53
2023/01/10 05:13:20;;;;;;;17.47;7.63;;;8.00;99.90;;;;;;4970022;28;20794;-53
2023/01/10 05:15:48;;;;;;;21.53;9.03;;;7.70;99.90;;;;;;4970230;28;20427;-53
2023/01/10 05:18:15;;;;;;;20.20;8.20;;;8.40;99.90;;;;;;4969935;28;20409;-53
2023/01/10 05:20:41;;;;;;;14.10;7.83;;;8.50;99.90;;;;;;4969079;28;20484;-53
2023/01/10 05:23:08;;;;;;;12.83;8.00;;;8.30;99.90;;;;;;4969816;28;20487;-54
2023/01/10 05:25:34;;;;;;;15.57;7.90;;;8.30;99.90;;;;;;4969960;28;20450;-54
2023/01/10 05:28:01;;;;;;;12.63;7.40;;;8.50;99.90;;;;;;4969755;28;20445;-54
2023/01/10 05:30:28;;;;;;;14.10;8.60;;;7.90;99.90;;;;;;4969096;28;20432;-53
2023/01/10 05:32:55;;;;;;;20.13;8.23;;;8.50;99.90;;;;;;4969696;28;20421;-53
2023/01/10 05:35:22;;;;;;;14.07;8.17;;;8.50;99.90;;;;;;4969380;28;20442;-53
2023/01/10 05:37:49;;;;;;;21.03;9.37;;;9.10;99.90;;;;;;4969570;28;20807;-54
2023/01/10 05:40:15;;;;;;;16.63;8.70;;;8.30;99.90;;;;;;4968834;28;20473;-54
2023/01/10 05:42:42;;;;;;;15.50;9.03;;;8.30;99.90;;;;;;4969510;28;20401;-53
2023/01/10 05:45:09;;;;;;;15.53;8.13;;;8.50;99.90;;;;;;4969731;28;20904;-54
2023/01/10 05:47:36;;;;;;;14.83;8.90;;;8.60;99.90;;;;;;4972468;28;20932;-54
2023/01/10 05:50:05;;;;;;;14.50;8.07;;;8.50;99.90;;;;;;4972003;28;21018;-53
2023/01/10 05:52:31;;;;;;;16.07;9.20;;;8.40;99.90;;;;;;4972791;28;20442;-53
2023/01/10 05:54:58;;;;;;;17.37;8.37;;;8.20;99.90;;;;;;4972752;28;20587;-53
2023/01/10 05:57:24;;;;;;;17.33;9.07;;;8.70;99.90;;;;;;4971489;28;20450;-53
2023/01/10 05:59:51;;;;;;;20.67;9.07;;;8.60;99.90;;;;;;4970623;28;20466;-54
2023/01/10 06:02:18;;;;;;;18.53;8.47;;;8.60;99.90;;;;;;4972739;28;20486;-53
2023/01/10 06:04:45;;;;;;;15.87;7.77;;;9.10;99.90;;;;;;4972608;28;20444;-52
2023/01/10 06:07:12;;;;;;;22.03;8.37;;;8.70;99.90;;;;;;4972695;28;20469;-54
2023/01/10 06:09:39;;;;;;;14.43;8.10;;;8.60;99.90;;;;;;4971835;28;20456;-53
2023/01/10 06:12:06;;;;;;;14.93;8.80;;;8.60;99.90;;;;;;4972546;28;20962;-53
2023/01/10 06:14:32;;;;;;;14.73;8.63;;;8.40;99.90;;;;;;4972329;28;20449;-53
2023/01/10 06:16:59;;;;;;;19.47;8.57;;;8.50;99.90;;;;;;4972265;28;20779;-53
2023/01/10 06:19:25;;;;;;;16.97;8.97;;;8.50;99.90;;;;;;4971516;28;20454;-52
2023/01/10 06:21:52;;;;;;;15.20;8.97;;;8.70;99.90;;;;;;4972345;28;20512;-53
2023/01/10 06:24:20;;;;;;;15.00;9.80;;;8.50;99.90;;;;;;4972398;28;20413;-53
2023/01/10 06:26:46;;;;;;;14.00;8.60;;;9.00;99.90;;;;;;4972102;28;20416;-53
2023/01/10 06:29:13;;;;;;;15.63;9.17;;;8.50;99.90;;;;;;4971454;28;20433;-54
2023/01/10 06:31:40;;;;;;;22.33;10.00;;;8.40;99.90;;;;;;4971878;28;20448;-53
2023/01/10 06:34:06;;;;;;;14.33;9.30;;;8.30;99.90;;;;;;4971438;28;20409;-53
2023/01/10 06:36:33;;;;;;;10.97;9.00;;;8.30;99.90;;;;;;4972046;28;20512;-54
2023/01/10 06:39:00;;;;;;;16.40;10.27;;;8.00;99.90;;;;;;4971786;28;20470;-52
2023/01/10 06:41:28;;;;;;;14.70;8.83;;;8.30;99.90;;;;;;4971736;28;21000;-53
2023/01/10 06:43:55;;;;;;;17.33;8.40;;;8.40;99.90;;;;;;4971610;28;20427;-52
2023/01/10 06:46:21;;;;;;;20.40;8.83;;;8.20;99.90;;;;;;4970302;28;20453;-52
2023/01/10 06:48:50;;;;;;;18.80;8.83;;;8.40;99.90;;;;;;4971197;28;20893;-53
2023/01/10 06:51:16;;;;;;;18.20;8.83;;;8.20;99.90;;;;;;4971465;28;20415;-53
2023/01/10 06:53:44;;;;;;;17.10;10.63;;;8.50;99.90;;;;;;4971937;28;20540;-54
2023/01/10 06:56:10;;;;;;;20.53;12.03;;;8.20;99.90;;;;;;4970145;28;20966;-53
2023/01/10 06:58:39;;;;;;;15.97;8.97;;;8.40;99.90;;;;;;4970611;28;20417;-52
2023/01/10 07:01:06;;;;;;;14.57;9.17;;;8.50;99.90;;;;;;4971386;28;20474;-51
2023/01/10 07:03:33;;;;;;;18.50;10.60;;;8.50;99.90;;;;;;4971583;28;20411;-53
2023/01/10 07:06:02;;;;;;;23.93;10.67;;;8.60;99.90;;;;;;4971630;28;20423;-53
2023/01/10 07:08:28;;;;;;;19.10;9.53;;;8.30;99.90;;;;;;4970521;28;20564;-51
2023/01/10 07:10:57;;;;;;;14.50;9.10;;;8.00;99.90;;;;;;4971858;28;20963;-52
2023/01/10 07:13:24;;;;;;;19.10;10.37;;;8.70;99.90;;;;;;4969624;28;20997;-53
2023/01/10 07:15:52;;;;;;;22.77;12.40;;;8.50;99.90;;;;;;4971355;28;20912;-53
2023/01/10 07:18:18;;;;;;;22.53;10.10;;;8.40;99.90;;;;;;4970149;28;20549;-53
2023/01/10 07:20:45;;;;;;;17.00;9.53;;;8.00;99.90;;;;;;4970907;28;20462;-52
2023/01/10 07:23:12;;;;;;;19.83;10.23;;;8.10;99.90;;;;;;4971479;28;20417;-52
2023/01/10 07:25:38;;;;;;;24.80;12.80;;;8.40;99.90;;;;;;4971320;28;20412;-53
2023/01/10 07:28:05;;;;;;;21.00;10.00;;;8.30;99.90;;;;;;4971523;28;20435;-52
2023/01/10 07:30:32;;;;;;;21.87;9.67;;;8.50;99.90;;;;;;4970520;28;20465;-52
2023/01/10 07:33:02;;;;;;;19.70;11.30;;;8.20;99.90;;;;;;4971357;28;20420;-52
2023/01/10 07:35:29;;;;;;;16.80;9.77;;;8.40;99.90;;;;;;4971025;28;20854;-52
2023/01/10 07:37:58;;;;;;;22.20;9.63;;;8.60;99.90;;;;;;4971388;28;20471;-54
2023/01/10 07:40:25;;;;;;;16.10;9.63;;;8.60;99.90;;;;;;4969988;28;20451;-53
2023/01/10 07:42:56;;;;;;;15.50;9.67;;;8.40;99.90;;;;;;4970911;28;20972;-53
2023/01/10 07:45:23;;;;;;;16.60;9.83;;;8.60;99.90;;;;;;4971235;28;20409;-52
2023/01/10 07:47:49;;;;;;;20.70;10.93;;;8.40;99.90;;;;;;4971130;28;20432;-52
2023/01/10 07:50:17;;;;;;;20.80;11.30;;;8.40;99.90;;;;;;4970242;28;20470;-52
2023/01/10 07:52:45;;;;;;;23.37;10.97;;;8.80;99.90;;;;;;4970915;28;20504;-53
2023/01/10 07:55:11;;;;;;;21.60;10.73;;;8.50;99.90;;;;;;4970519;28;20431;-53
2023/01/10 07:57:38;;;;;;;18.23;9.90;;;8.60;99.90;;;;;;4971424;28;20413;-52
2023/01/10 08:00:05;;;;;;;18.37;11.60;;;8.70;99.90;;;;;;4968683;28;20477;-52
2023/01/10 08:02:32;;;;;;;21.37;11.40;;;8.50;99.90;;;;;;4970622;28;20457;-52
2023/01/10 08:04:59;;;;;;;19.00;10.23;;;8.20;99.90;;;;;;4969610;28;20421;-52
2023/01/10 08:07:28;;;;;;;19.53;10.90;;;8.90;99.90;;;;;;4970602;28;20417;-52
2023/01/10 08:09:55;;;;;;;18.93;11.30;;;9.10;99.90;;;;;;4969304;28;20421;-52
2023/01/10 08:12:23;;;;;;;16.00;10.20;;;8.30;99.90;;;;;;4970554;28;20405;-52
2023/01/10 08:14:50;;;;;;;17.83;11.13;;;8.60;99.90;;;;;;4970410;28;20452;-52
2023/01/10 08:17:16;;;;;;;18.33;10.37;;;8.90;99.90;;;;;;4969362;28;20799;-52
2023/01/10 08:19:43;;;;;;;24.03;10.93;;;8.50;99.90;;;;;;4969870;28;20429;-52
2023/01/10 08:22:10;;;;;;;23.80;10.97;;;9.40;99.90;;;;;;4970288;28;20449;-53
2023/01/10 08:24:38;;;;;;;25.57;10.43;;;9.20;99.90;;;;;;4970585;28;20409;-53
2023/01/10 08:27:04;;;;;;;17.67;9.70;;;8.80;99.90;;;;;;4970474;28;20421;-53
2023/01/10 08:29:32;;;;;;;17.03;10.13;;;8.80;99.90;;;;;;4969686;28;20432;-52
2023/01/10 08:31:58;;;;;;;18.67;10.40;;;9.10;99.90;;;;;;4970455;28;20413;-53
2023/01/10 08:34:25;;;;;;;20.73;11.40;;;9.10;99.90;;;;;;4970381;28;20960;-52
2023/01/10 08:36:53;;;;;;;17.77;9.60;;;8.90;99.90;;;;;;4970359;28;20417;-53
2023/01/10 08:39:21;;;;;;;18.60;10.77;;;8.50;99.90;;;;;;4968392;28;20456;-52
2023/01/10 08:41:49;;;;;;;16.27;10.23;;;8.50;99.90;;;;;;4968861;28;20867;-53
2023/01/10 08:44:16;;;;;;;13.40;9.90;;;9.30;99.90;;;;;;4969813;28;20602;-52
2023/01/10 08:46:42;;;;;;;18.47;9.70;;;8.90;99.90;;;;;;4970127;28;20438;-52
2023/01/10 08:49:09;;;;;;;19.70;10.87;;;9.20;99.90;;;;;;4969188;28;20436;-53
2023/01/10 08:51:36;;;;;;;13.67;10.40;;;9.00;99.90;;;;;;4970294;28;20785;-53
2023/01/10 08:54:03;;;;;;;18.57;10.63;;;9.00;99.90;;;;;;4970242;28;20808;-53
2023/01/10 08:56:30;;;;;;;13.90;9.50;;;8.40;99.90;;;;;;4970150;28;20924;-52
2023/01/10 08:58:58;;;;;;;23.73;11.60;;;8.60;99.90;;;;;;4969286;28;20957;-52
2023/01/10 09:01:24;;;;;;;18.73;12.47;;;8.90;99.90;;;;;;4969681;28;20497;-52
2023/01/10 09:03:51;;;;;;;19.50;10.80;;;9.40;99.90;;;;;;4969656;28;20420;-52
2023/01/10 09:06:18;;;;;;;18.67;10.50;;;9.50;99.90;;;;;;4970030;28;20417;-52
2023/01/10 09:08:44;;;;;;;16.63;10.37;;;9.60;99.90;;;;;;4969018;28;20442;-53
2023/01/10 09:11:11;;;;;;;24.63;9.97;;;9.60;99.90;;;;;;4970011;28;20590;-53
2023/01/10 09:13:39;;;;;;;16.50;9.70;;;9.60;99.90;;;;;;4969873;28;20876;-53
2023/01/10 09:16:07;;;;;;;18.80;10.10;;;9.30;99.90;;;;;;4969459;28;20557;-53
2023/01/10 09:18:34;;;;;;;25.53;10.77;;;9.40;99.90;;;;;;4968711;28;20759;-53
2023/01/10 09:21:01;;;;;;;15.17;9.23;;;9.60;99.90;;;;;;4970357;28;20409;-53
2023/01/10 09:23:28;;;;;;;15.33;10.53;;;9.70;99.90;;;;;;4973017;28;20456;-53
2023/01/10 09:25:56;;;;;;;16.70;10.90;;;9.60;99.90;;;;;;4972936;28;20525;-52
2023/01/10 09:28:24;;;;;;;18.30;8.90;;;8.90;99.90;;;;;;4972556;28;20419;-52
2023/01/10 09:30:50;;;;;;;12.90;8.60;;;9.20;99.90;;;;;;4972634;28;20463;-51
2023/01/10 09:33:19;;;;;;;19.17;10.93;;;9.70;99.90;;;;;;4972751;28;20443;-53
2023/01/10 09:35:46;;;;;;;22.73;9.80;;;9.40;99.90;;;;;;4971317;28;20429;-52
2023/01/10 09:38:15;;;;;;;18.17;8.03;;;9.70;99.90;;;;;;4972893;28;20829;-53
2023/01/10 09:40:57;;;;;;;19.53;9.23;;;9.00;99.90;;;;;;4972112;28;20520;-52
2023/01/10 09:43:33;;;;;;;13.93;8.60;;;9.30;99.90;;;;;;4972668;28;20460;-52
2023/01/10 09:46:06;;;;;;;17.30;8.77;;;9.70;99.90;;;;;;4972623;28;20830;-54
2023/01/10 09:48:41;;;;;;;18.30;9.40;;;9.10;99.90;;;;;;4972152;28;20442;-52
2023/01/10 09:51:29;;;;;;;13.00;8.00;;;9.50;99.90;;;;;;4973173;28;20433;-52
2023/01/10 09:53:59;;;;;;;12.80;8.43;;;9.60;99.90;;;;;;4972351;28;20417;-51
2023/01/10 09:56:27;;;;;;;13.60;7.53;;;9.60;99.90;;;;;;4973207;28;20482;-53
2023/01/10 09:58:54;;;;;;;15.00;8.07;;;9.20;99.90;;;;;;4972158;28;20448;-52
2023/01/10 10:01:25;;;;;;;12.53;8.20;;;9.50;99.90;;;;;;4972485;28;20413;-52
2023/01/10 10:04:00;;;;;;;16.73;8.27;;;10.10;99.90;;;;;;4972755;28;20409;-51
2023/01/10 10:06:27;;;;;;;14.63;8.63;;;9.70;99.90;;;;;;4972589;28;20531;-53
2023/01/10 10:08:54;;;;;;;13.47;8.73;;;9.70;99.90;;;;;;4971954;28;20589;-52
2023/01/10 10:11:37;;;;;;;15.60;8.50;;;9.70;99.90;;;;;;4972405;28;20412;-52
2023/01/10 10:14:09;;;;;;;14.70;8.43;;;9.50;99.90;;;;;;4972393;28;20434;-53
2023/01/10 10:16:50;;;;;;;13.97;9.50;;;9.80;99.90;;;;;;4972420;28;20410;-54
2023/01/10 10:19:25;;;;;;;14.20;8.70;;;10.10;99.90;;;;;;4971756;28;20494;-51
2023/01/10 10:22:00;;;;;;;16.50;9.10;;;9.80;99.90;;;;;;4972177;28;20484;-53
2023/01/10 10:24:39;;;;;;;16.77;8.53;;;10.40;99.90;;;;;;4972378;28;20433;-52
2023/01/10 10:27:16;;;;;;;19.20;8.30;;;9.90;99.90;;;;;;4971937;28;20442;-52
2023/01/10 10:30:19;;;;;;;17.30;8.33;;;10.40;99.90;;;;;;4971660;28;20468;-53
2023/01/10 10:33:06;;;;;;;21.50;8.37;;;10.10;99.90;;;;;;5005987;28;20450;-52
2023/01/10 10:35:37;;;;;;;20.43;10.30;;;10.10;99.90;;;;;;4972248;28;20420;-53
2023/01/10 10:38:09;;;;;;;17.17;8.23;;;10.00;99.90;;;;;;4972180;28;21017;-52
2023/01/10 10:40:39;;;;;;;15.73;8.90;;;9.90;99.90;;;;;;4971531;28;20545;-52
2023/01/10 10:43:19;;;;;;;16.93;8.17;;;9.50;99.90;;;;;;4970514;28;20452;-51
2023/01/10 10:45:51;;;;;;;14.97;8.10;;;9.70;99.90;;;;;;4972055;28;20434;-52
2023/01/10 10:48:23;;;;;;;9.87;7.33;;;9.70;99.90;;;;;;4972174;28;20424;-53
2023/01/10 10:51:02;;;;;;;13.80;8.23;;;9.80;99.90;;;;;;4971550;28;20444;-52
2023/01/10 10:53:30;;;;;;;18.43;8.83;;;9.90;99.90;;;;;;4971942;28;20435;-54
2023/01/10 10:55:58;;;;;;;18.30;9.23;;;9.80;99.90;;;;;;4971613;28;20513;-52
2023/01/10 10:58:29;;;;;;;13.33;7.20;;;10.50;99.90;;;;;;4971233;28;20496;-53
2023/01/10 11:00:56;;;;;;;17.07;6.83;;;9.50;99.90;;;;;;4971985;28;20473;-52
2023/01/10 11:03:34;;;;;;;13.67;6.80;;;10.20;99.90;;;;;;4972263;28;20467;-53
2023/01/10 11:06:02;;;;;;;15.60;7.00;;;10.10;99.90;;;;;;4971328;28;20429;-53
2023/01/10 11:08:30;;;;;;;12.57;5.83;;;10.60;99.90;;;;;;4970076;28;20432;-52
2023/01/10 11:10:59;;;;;;;13.23;6.80;;;10.50;99.90;;;;;;4971109;28;20436;-52
2023/01/10 11:13:43;;;;;;;15.33;6.30;;;10.60;99.90;;;;;;4973149;28;20700;-53
2023/01/10 11:16:25;;;;;;;13.80;6.30;;;10.20;99.90;;;;;;4973363;28;20430;-53
2023/01/10 11:19:24;;;;;;;19.03;7.00;;;10.80;99.90;;;;;;4970366;28;20452;-53
2023/01/10 11:21:55;;;;;;;15.20;6.63;;;10.40;99.90;;;;;;4970463;28;20775;-53
2023/01/10 11:24:33;;;;;;;16.20;6.27;;;11.00;99.90;;;;;;4971799;28;20434;-52
2023/01/10 11:27:04;;;;;;;14.37;5.27;;;10.50;99.90;;;;;;4971702;28;20443;-53
2023/01/10 11:29:38;;;;;;;11.03;5.50;;;11.00;99.90;;;;;;4971109;28;20478;-52
2023/01/10 11:32:13;;;;;;;18.20;5.83;;;10.00;99.90;;;;;;4971618;28;20523;-53
2023/01/10 11:34:40;;;;;;;11.33;5.70;;;10.50;99.90;;;;;;4971658;28;20927;-53
2023/01/10 11:37:28;;;;;;;13.93;6.60;;;10.10;99.90;;;;;;4970148;28;20919;-52
2023/01/10 11:40:22;;;;;;;10.80;5.73;;;10.60;99.90;;;;;;4970754;28;20528;-51
2023/01/10 11:42:50;;;;;;;12.20;5.60;;;10.60;99.90;;;;;;4971007;28;20953;-52
2023/01/10 11:45:26;;;;;;;10.93;5.40;;;10.60;99.90;;;;;;4970177;28;20771;-53
2023/01/10 11:47:56;;;;;;;12.57;5.50;;;10.60;99.90;;;;;;4971165;28;20450;-52
2023/01/10 11:50:26;;;;;;;8.43;4.77;;;10.50;99.90;;;;;;4970797;28;20976;-53
2023/01/10 11:52:55;;;;;;;13.03;5.57;;;10.80;99.90;;;;;;4971198;28;20418;-53
2023/01/10 11:55:25;;;;;;;18.00;5.70;;;10.70;99.90;;;;;;4970948;28;20417;-53
2023/01/10 11:57:58;;;;;;;13.60;5.70;;;10.80;99.90;;;;;;4970904;28;20409;-53
2023/01/10 12:00:33;;;;;;;16.50;6.20;;;10.70;99.90;;;;;;4968671;28;20494;-53
2023/01/10 12:03:00;;;;;;;14.03;5.70;;;10.70;99.90;;;;;;4970782;28;20447;-52
2023/01/10 12:05:27;;;;;;;13.90;5.83;;;11.00;99.90;;;;;;4970693;28;20538;-53
2023/01/10 12:07:56;;;;;;;19.70;7.13;;;10.50;99.90;;;;;;4970523;28;20497;-52
2023/01/10 12:10:25;;;;;;;11.13;6.47;;;10.70;99.90;;;;;;4969731;28;20454;-52
2023/01/10 12:12:57;;;;;;;11.50;6.30;;;10.60;99.90;;;;;;4970717;28;20435;-51
2023/01/10 12:15:26;;;;;;;10.87;5.00;;;10.10;99.90;;;;;;4970386;28;20516;-53
2023/01/10 12:17:55;;;;;;;21.80;6.10;;;10.80;99.90;;;;;;4970458;28;20451;-53
2023/01/10 12:20:23;;;;;;;13.30;5.77;;;10.60;99.90;;;;;;4969886;28;20462;-52
2023/01/10 12:22:54;;;;;;;10.67;5.47;;;10.90;99.90;;;;;;4970464;28;20509;-52
2023/01/10 12:25:27;;;;;;;19.33;5.63;;;10.40;99.90;;;;;;4968974;28;20469;-53
2023/01/10 12:27:55;;;;;;;12.80;5.17;;;10.60;99.90;;;;;;4970656;28;20471;-53
2023/01/10 12:30:32;;;;;;;15.33;4.80;;;9.90;99.90;;;;;;4969628;28;20977;-52
2023/01/10 12:33:02;;;;;;;13.87;5.10;;;10.30;99.90;;;;;;4970013;28;20456;-52
2023/01/10 12:35:39;;;;;;;13.60;4.80;;;10.20;99.90;;;;;;4970375;28;20466;-52
2023/01/10 12:38:22;;;;;;;15.13;5.60;;;10.60;99.90;;;;;;4970142;28;20976;-52
2023/01/10 12:40:58;;;;;;;15.27;4.33;;;10.10;99.90;;;;;;4991426;23;20469;-52
2023/01/10 12:46:22;;;;;;;16.63;4.40;;;10.20;99.90;;;;;;4970440;28;20434;-53
2023/01/10 12:48:54;;;;;;;16.97;5.10;;;10.30;99.90;;;;;;4967904;28;20429;-53
2023/01/10 12:51:25;;;;;;;12.77;5.17;;;10.30;99.90;;;;;;4950842;28;20533;-52
2023/01/10 12:53:56;;;;;;;11.20;4.43;;;10.10;99.90;;;;;;4950916;28;20421;-53
2023/01/10 12:56:24;;;;;;;15.50;5.97;;;10.70;99.90;;;;;;4950539;28;20622;-53
2023/01/10 12:58:56;;;;;;;19.50;5.60;;;10.10;99.90;;;;;;4950198;29;20886;-53
2023/01/10 13:01:28;;;;;;;16.73;5.07;;;10.20;99.90;;;;;;4951304;28;20454;-53
2023/01/10 13:03:57;;;;;;;16.10;3.93;;;10.80;99.90;;;;;;4950911;29;20469;-53
2023/01/10 13:06:32;;;;;;;13.40;4.73;;;10.50;99.90;;;;;;4950700;28;20418;-53